CMA CGM Nabucco — FMEK — position and weather

sailwx.info

Track history (hours):
 
Tides and Currents Weather Stations Pressure Air Temp Water Temp Dewpoint Dewpoint Depression Visibility Wind Speed Wind Dir Waves Ship Positions

CMA CGM Nabucco

Last reported at 2017-Nov-15 08:16 UTC. Time now 2017-Nov-24 04:12 UTC.
Position N 37°33' W 123°15'.
Warning: this ship's position is 8 days out of date.

Length 334 m; draft 12.6 m.

Type: Cargo ship. MMSI: 228338600.

Date/timePositionNaut miles runAvg speedWind from/ knotsBaromVisibWave heightAir tempDewpointWater temp
2017-Nov-15 08:16N 37°33' W 123°15'518.6
2017-Nov-15 08:00N 37°34' W 123°08'611.7
2017-Nov-15 07:31N 37°35' W 123°01'5 9.9
2017-Nov-15 07:00N 37°38' W 122°56'510.2
2017-Nov-15 06:30N 37°41' W 122°51'510.1
2017-Nov-15 06:00N 37°44' W 122°46'5 9.4
2017-Nov-15 05:30N 37°46' W 122°41'815.0
2017-Nov-15 05:00N 37°48' W 122°31'612.1
2017-Nov-15 04:30N 37°50' W 122°24'4 8.5
2017-Nov-15 04:01N 37°48' W 122°19'1 2.6
2017-Nov-15 03:30N 37°48' W 122°17'1 2.8
2017-Nov-15 03:01N 37°48' W 122°19'0 0.3
2017-Nov-15 02:30N 37°48' W 122°19'0 0.0
2017-Nov-15 02:00N 37°48' W 122°19'0 0.0
2017-Nov-15 01:30N 37°48' W 122°19'0 0.0
2017-Nov-15 01:00N 37°48' W 122°19'0 0.0
2017-Nov-15 00:30N 37°48' W 122°19'0 0.0
2017-Nov-15 00:00N 37°48' W 122°19'0 0.0
2017-Nov-14 23:30N 37°48' W 122°19'0 0.0
2017-Nov-14 23:00N 37°48' W 122°19'0 0.0
2017-Nov-14 22:30N 37°48' W 122°19'0 0.0
2017-Nov-14 22:00N 37°48' W 122°19'0 0.0
2017-Nov-14 21:30N 37°48' W 122°19'0 0.0
2017-Nov-14 21:00N 37°48' W 122°19'0 0.0
2017-Nov-14 20:30N 37°48' W 122°19'0 0.0
2017-Nov-14 20:00N 37°48' W 122°19'0 0.0
2017-Nov-14 19:30N 37°48' W 122°19'0 0.0
2017-Nov-14 19:00N 37°48' W 122°19'0 0.0
2017-Nov-14 18:30N 37°48' W 122°19'0 0.0
2017-Nov-14 18:00N 37°48' W 122°19'0 0.0
2017-Nov-14 17:30N 37°48' W 122°19'0 0.0
2017-Nov-14 17:00N 37°48' W 122°19'0 0.0
2017-Nov-14 16:30N 37°48' W 122°19'0 0.0
2017-Nov-14 16:00N 37°48' W 122°19'0 0.0
2017-Nov-14 15:30N 37°48' W 122°19'0 0.0
2017-Nov-14 15:00N 37°48' W 122°19'0 0.0
2017-Nov-14 14:30N 37°48' W 122°19'0 0.0
2017-Nov-14 14:00N 37°48' W 122°19'0 0.0
2017-Nov-14 13:30N 37°48' W 122°19'0 0.0
2017-Nov-14 13:00N 37°48' W 122°19'0 0.0
2017-Nov-14 12:30N 37°48' W 122°19'0 0.0
2017-Nov-14 12:00N 37°48' W 122°19'0 0.0
2017-Nov-14 11:30N 37°48' W 122°19'0 0.0
2017-Nov-14 11:00N 37°48' W 122°19'0 0.0
2017-Nov-14 10:30N 37°48' W 122°19'0 0.0
2017-Nov-14 10:00N 37°48' W 122°19'0 0.0
2017-Nov-14 09:30N 37°48' W 122°19'0 0.0
2017-Nov-14 09:00N 37°48' W 122°19'0 0.0
2017-Nov-14 08:30N 37°48' W 122°19'0 0.0
2017-Nov-14 08:00N 37°48' W 122°19'0 0.0
2017-Nov-14 07:30N 37°48' W 122°19'0 0.0
2017-Nov-14 07:00N 37°48' W 122°19'0 0.0
2017-Nov-14 06:30N 37°48' W 122°19'0 0.0
2017-Nov-14 06:00N 37°48' W 122°19'0 0.0
2017-Nov-14 05:30N 37°48' W 122°19'0 0.0
2017-Nov-14 05:00N 37°48' W 122°19'0 0.0
2017-Nov-14 04:30N 37°48' W 122°19'0 0.0
2017-Nov-14 04:00N 37°48' W 122°19'0 0.0
2017-Nov-14 03:30N 37°48' W 122°19'0 0.0
2017-Nov-14 03:00N 37°48' W 122°19'0 0.0
2017-Nov-14 02:30N 37°48' W 122°19'0 0.0
2017-Nov-14 02:00N 37°48' W 122°19'0 0.1
2017-Nov-14 01:31N 37°48' W 122°19'3 5.6
2017-Nov-14 01:00N 37°48' W 122°23'714.1
2017-Nov-14 00:30N 37°48' W 122°32'815.9
2017-Nov-14 00:01N 37°44' W 122°41'510.0
2017-Nov-13 23:31N 37°39' W 122°40'510.3
2017-Nov-13 23:00N 37°34' W 122°40'510.0
2017-Nov-13 22:30N 37°29' W 122°40'510.2
2017-Nov-13 22:00N 37°24' W 122°40'30815.1
2017-Nov-13 01:38N 33°44' W 118°16'0 1.0
2017-Nov-13 01:30N 33°44' W 118°16'0 0.4
2017-Nov-13 00:20N 33°44' W 118°15'0 0.0
2017-Nov-12 21:41N 33°44' W 118°15'0 0.0
2017-Nov-12 16:38N 33°44' W 118°15'0 0.0
2017-Nov-12 16:20N 33°44' W 118°15'0 0.0
2017-Nov-12 01:23N 33°44' W 118°15'0 0.0
2017-Nov-12 00:59N 33°44' W 118°15'0 0.0
2017-Nov-12 00:29N 33°44' W 118°15'0 0.0
2017-Nov-11 23:59N 33°44' W 118°15'0 0.0
2017-Nov-11 23:23N 33°44' W 118°15'  
2017-Nov-09 14:06N 33°41' W 118°14'1 8.9
2017-Nov-09 14:00N 33°40' W 118°14'3 4.7
2017-Nov-09 13:24N 33°37' W 118°15'3 6.9
2017-Nov-09 13:00N 33°36' W 118°17'4 7.5
2017-Nov-09 12:30N 33°36' W 118°22'4 8.0
2017-Nov-09 12:00N 33°38' W 118°26'4 8.0
2017-Nov-09 11:30N 33°40' W 118°30'4 8.0
2017-Nov-09 11:00N 33°43' W 118°34'4 7.9
2017-Nov-09 10:30N 33°45' W 118°38'4 8.3
2017-Nov-09 10:00N 33°46' W 118°43'612.0
2017-Nov-09 09:30N 33°50' W 118°49'611.8
2017-Nov-09 09:00N 33°52' W 118°55'611.7
2017-Nov-09 08:30N 33°55' W 119°01'611.8
2017-Nov-09 07:59N 33°59' W 119°08'612.2
2017-Nov-09 07:30N 34°02' W 119°14'612.0
2017-Nov-09 06:58N 34°04' W 119°21'611.7
2017-Nov-09 06:29N 34°05' W 119°28'611.8
2017-Nov-09 06:00N 34°07' W 119°34'611.7
2017-Nov-09 05:29N 34°08' W 119°41'611.6
2017-Nov-09 04:59N 34°10' W 119°48'611.9
2017-Nov-09 04:27N 34°12' W 119°55'712.1
2017-Nov-09 03:51N 34°13' W 120°04'411.6
2017-Nov-09 03:30N 34°14' W 120°09'711.8
2017-Nov-09 02:56N 34°16' W 120°16'511.7
2017-Nov-09 02:30N 34°17' W 120°22'611.9
2017-Nov-09 01:59N 34°19' W 120°30'611.9
2017-Nov-09 01:30N 34°21' W 120°36'611.7
2017-Nov-09 01:00N 34°22' W 120°43'612.0
2017-Nov-09 00:30N 34°24' W 120°50'611.6
2017-Nov-09 00:00N 34°24' W 120°57'611.7
2017-Nov-08 23:30N 34°24' W 121°04'611.8
2017-Nov-08 23:00N 34°24' W 121°11'815.8
2017-Nov-08 22:30N 34°25' W 121°21'917.1
2017-Nov-08 22:00N 34°24' W 121°31'917.3
2017-Nov-08 21:30N 34°24' W 121°42'816.8
2017-Nov-08 21:01N 34°25' W 121°52'816.7
2017-Nov-08 20:30N 34°24' W 122°02'1316.5
2017-Nov-08 19:42N 34°23' W 122°18'22 9.3
2017-Nov-08 17:21N 34°25' W 122°44'  
Track history (hours):
 
Tides and Currents Weather Stations Pressure Air Temp Water Temp Dewpoint Dewpoint Depression Visibility Wind Speed Wind Dir Waves Ship Positions

CMA CGM Nabucco

Last reported at 2017-Nov-15 08:16 UTC. Time now 2017-Nov-24 04:12 UTC.
Position N 37°33' W 123°15'.
Warning: this ship's position is 8 days out of date.

Length 334 m; draft 12.6 m.

Type: Cargo ship. MMSI: 228338600.

Date/timePositionNaut miles runAvg speedWind from/ knotsBaromVisibWave heightAir tempDewpointWater temp
2017-Nov-15 08:16N 37°33' W 123°15'518.6
2017-Nov-15 08:00N 37°34' W 123°08'611.7
2017-Nov-15 07:31N 37°35' W 123°01'5 9.9
2017-Nov-15 07:00N 37°38' W 122°56'510.2
2017-Nov-15 06:30N 37°41' W 122°51'510.1
2017-Nov-15 06:00N 37°44' W 122°46'5 9.4
2017-Nov-15 05:30N 37°46' W 122°41'815.0
2017-Nov-15 05:00N 37°48' W 122°31'612.1
2017-Nov-15 04:30N 37°50' W 122°24'4 8.5
2017-Nov-15 04:01N 37°48' W 122°19'1 2.6
2017-Nov-15 03:30N 37°48' W 122°17'1 2.8
2017-Nov-15 03:01N 37°48' W 122°19'0 0.3
2017-Nov-15 02:30N 37°48' W 122°19'0 0.0
2017-Nov-15 02:00N 37°48' W 122°19'0 0.0
2017-Nov-15 01:30N 37°48' W 122°19'0 0.0
2017-Nov-15 01:00N 37°48' W 122°19'0 0.0
2017-Nov-15 00:30N 37°48' W 122°19'0 0.0
2017-Nov-15 00:00N 37°48' W 122°19'0 0.0
2017-Nov-14 23:30N 37°48' W 122°19'0 0.0
2017-Nov-14 23:00N 37°48' W 122°19'0 0.0
2017-Nov-14 22:30N 37°48' W 122°19'0 0.0
2017-Nov-14 22:00N 37°48' W 122°19'0 0.0
2017-Nov-14 21:30N 37°48' W 122°19'0 0.0
2017-Nov-14 21:00N 37°48' W 122°19'0 0.0
2017-Nov-14 20:30N 37°48' W 122°19'0 0.0
2017-Nov-14 20:00N 37°48' W 122°19'0 0.0
2017-Nov-14 19:30N 37°48' W 122°19'0 0.0
2017-Nov-14 19:00N 37°48' W 122°19'0 0.0
2017-Nov-14 18:30N 37°48' W 122°19'0 0.0
2017-Nov-14 18:00N 37°48' W 122°19'0 0.0
2017-Nov-14 17:30N 37°48' W 122°19'0 0.0
2017-Nov-14 17:00N 37°48' W 122°19'0 0.0
2017-Nov-14 16:30N 37°48' W 122°19'0 0.0
2017-Nov-14 16:00N 37°48' W 122°19'0 0.0
2017-Nov-14 15:30N 37°48' W 122°19'0 0.0
2017-Nov-14 15:00N 37°48' W 122°19'0 0.0
2017-Nov-14 14:30N 37°48' W 122°19'0 0.0
2017-Nov-14 14:00N 37°48' W 122°19'0 0.0
2017-Nov-14 13:30N 37°48' W 122°19'0 0.0
2017-Nov-14 13:00N 37°48' W 122°19'0 0.0
2017-Nov-14 12:30N 37°48' W 122°19'0 0.0
2017-Nov-14 12:00N 37°48' W 122°19'0 0.0
2017-Nov-14 11:30N 37°48' W 122°19'0 0.0
2017-Nov-14 11:00N 37°48' W 122°19'0 0.0
2017-Nov-14 10:30N 37°48' W 122°19'0 0.0
2017-Nov-14 10:00N 37°48' W 122°19'0 0.0
2017-Nov-14 09:30N 37°48' W 122°19'0 0.0
2017-Nov-14 09:00N 37°48' W 122°19'0 0.0
2017-Nov-14 08:30N 37°48' W 122°19'0 0.0
2017-Nov-14 08:00N 37°48' W 122°19'0 0.0
2017-Nov-14 07:30N 37°48' W 122°19'0 0.0
2017-Nov-14 07:00N 37°48' W 122°19'0 0.0
2017-Nov-14 06:30N 37°48' W 122°19'0 0.0
2017-Nov-14 06:00N 37°48' W 122°19'0 0.0
2017-Nov-14 05:30N 37°48' W 122°19'0 0.0
2017-Nov-14 05:00N 37°48' W 122°19'0 0.0
2017-Nov-14 04:30N 37°48' W 122°19'0 0.0
2017-Nov-14 04:00N 37°48' W 122°19'0 0.0
2017-Nov-14 03:30N 37°48' W 122°19'0 0.0
2017-Nov-14 03:00N 37°48' W 122°19'0 0.0
2017-Nov-14 02:30N 37°48' W 122°19'0 0.0
2017-Nov-14 02:00N 37°48' W 122°19'0 0.1
2017-Nov-14 01:31N 37°48' W 122°19'3 5.6
2017-Nov-14 01:00N 37°48' W 122°23'714.1
2017-Nov-14 00:30N 37°48' W 122°32'815.9
2017-Nov-14 00:01N 37°44' W 122°41'510.0
2017-Nov-13 23:31N 37°39' W 122°40'510.3
2017-Nov-13 23:00N 37°34' W 122°40'510.0
2017-Nov-13 22:30N 37°29' W 122°40'510.2
2017-Nov-13 22:00N 37°24' W 122°40'30815.1
2017-Nov-13 01:38N 33°44' W 118°16'0 1.0
2017-Nov-13 01:30N 33°44' W 118°16'0 0.4
2017-Nov-13 00:20N 33°44' W 118°15'0 0.0
2017-Nov-12 21:41N 33°44' W 118°15'0 0.0
2017-Nov-12 16:38N 33°44' W 118°15'0 0.0
2017-Nov-12 16:20N 33°44' W 118°15'0 0.0
2017-Nov-12 01:23N 33°44' W 118°15'0 0.0
2017-Nov-12 00:59N 33°44' W 118°15'0 0.0
2017-Nov-12 00:29N 33°44' W 118°15'0 0.0
2017-Nov-11 23:59N 33°44' W 118°15'0 0.0
2017-Nov-11 23:23N 33°44' W 118°15'  
2017-Nov-09 14:06N 33°41' W 118°14'1 8.9
2017-Nov-09 14:00N 33°40' W 118°14'3 4.7
2017-Nov-09 13:24N 33°37' W 118°15'3 6.9
2017-Nov-09 13:00N 33°36' W 118°17'4 7.5
2017-Nov-09 12:30N 33°36' W 118°22'4 8.0
2017-Nov-09 12:00N 33°38' W 118°26'4 8.0
2017-Nov-09 11:30N 33°40' W 118°30'4 8.0
2017-Nov-09 11:00N 33°43' W 118°34'4 7.9
2017-Nov-09 10:30N 33°45' W 118°38'4 8.3
2017-Nov-09 10:00N 33°46' W 118°43'612.0
2017-Nov-09 09:30N 33°50' W 118°49'611.8
2017-Nov-09 09:00N 33°52' W 118°55'611.7
2017-Nov-09 08:30N 33°55' W 119°01'611.8
2017-Nov-09 07:59N 33°59' W 119°08'612.2
2017-Nov-09 07:30N 34°02' W 119°14'612.0
2017-Nov-09 06:58N 34°04' W 119°21'611.7
2017-Nov-09 06:29N 34°05' W 119°28'611.8
2017-Nov-09 06:00N 34°07' W 119°34'611.7
2017-Nov-09 05:29N 34°08' W 119°41'611.6
2017-Nov-09 04:59N 34°10' W 119°48'611.9
2017-Nov-09 04:27N 34°12' W 119°55'712.1
2017-Nov-09 03:51N 34°13' W 120°04'411.6
2017-Nov-09 03:30N 34°14' W 120°09'711.8
2017-Nov-09 02:56N 34°16' W 120°16'511.7
2017-Nov-09 02:30N 34°17' W 120°22'611.9
2017-Nov-09 01:59N 34°19' W 120°30'611.9
2017-Nov-09 01:30N 34°21' W 120°36'611.7
2017-Nov-09 01:00N 34°22' W 120°43'612.0
2017-Nov-09 00:30N 34°24' W 120°50'611.6
2017-Nov-09 00:00N 34°24' W 120°57'611.7
2017-Nov-08 23:30N 34°24' W 121°04'611.8
2017-Nov-08 23:00N 34°24' W 121°11'815.8
2017-Nov-08 22:30N 34°25' W 121°21'917.1
2017-Nov-08 22:00N 34°24' W 121°31'917.3
2017-Nov-08 21:30N 34°24' W 121°42'816.8
2017-Nov-08 21:01N 34°25' W 121°52'816.7
2017-Nov-08 20:30N 34°24' W 122°02'1316.5
2017-Nov-08 19:42N 34°23' W 122°18'22 9.3
2017-Nov-08 17:21N 34°25' W 122°44'  

Dump ship's entire track history